createdAt,value
2019-02-26T00:00:30.947Z,11.33
2019-02-26T00:03:02.849Z,9.80
2019-02-26T00:05:33.113Z,10.73
2019-02-26T00:08:03.169Z,10.10
2019-02-26T00:10:35.949Z,13.23
2019-02-26T00:13:04.033Z,11.73
2019-02-26T00:15:35.774Z,15.67
2019-02-26T00:18:07.436Z,8.73
2019-02-26T00:20:37.391Z,10.97
2019-02-26T00:23:07.437Z,11.37
2019-02-26T00:25:37.057Z,8.70
2019-02-26T00:28:06.609Z,13.00
2019-02-26T00:30:38.004Z,9.50
2019-02-26T00:33:07.463Z,15.90
2019-02-26T00:35:37.046Z,13.33
2019-02-26T00:38:06.629Z,10.97
2019-02-26T00:40:37.159Z,12.50
2019-02-26T00:43:07.513Z,9.67
2019-02-26T00:45:39.110Z,13.80
2019-02-26T00:48:08.375Z,8.20
2019-02-26T00:50:39.731Z,6.43
2019-02-26T00:53:09.213Z,10.20
2019-02-26T00:55:39.675Z,8.43
2019-02-26T00:58:10.835Z,10.87
2019-02-26T01:00:41.194Z,10.87
2019-02-26T01:03:11.531Z,7.43
2019-02-26T01:05:43.245Z,8.90
2019-02-26T01:08:15.186Z,8.30
2019-02-26T01:10:45.841Z,11.87
2019-02-26T01:13:16.048Z,7.23
2019-02-26T01:15:45.579Z,9.23
2019-02-26T01:18:15.191Z,9.57
2019-02-26T01:20:48.262Z,6.80
2019-02-26T01:23:16.458Z,6.77
2019-02-26T01:25:47.345Z,6.57
2019-02-26T01:28:18.648Z,10.77
2019-02-26T01:30:48.929Z,9.40
2019-02-26T01:33:19.437Z,9.63
2019-02-26T01:35:50.296Z,9.87
2019-02-26T01:38:21.331Z,10.17
2019-02-26T01:40:53.670Z,6.23
2019-02-26T01:43:22.881Z,9.77
2019-02-26T01:45:54.965Z,5.87
2019-02-26T01:48:23.745Z,8.40
2019-02-26T01:50:54.438Z,8.90
2019-02-26T01:53:24.573Z,8.07
2019-02-26T01:55:54.197Z,8.00
2019-02-26T01:58:23.845Z,6.10
2019-02-26T02:00:55.314Z,7.73
2019-02-26T02:03:25.494Z,7.40
2019-02-26T02:05:55.969Z,10.73
2019-02-26T02:08:25.551Z,8.67
2019-02-26T02:10:57.129Z,5.07
2019-02-26T02:13:30.378Z,6.90
2019-02-26T02:15:59.621Z,6.27
2019-02-26T02:18:29.879Z,6.20
2019-02-26T02:21:00.154Z,6.80
2019-02-26T02:23:30.323Z,9.13
2019-02-26T02:26:04.055Z,4.10
2019-02-26T02:28:33.223Z,6.43
2019-02-26T02:31:02.682Z,5.07
2019-02-26T02:33:34.926Z,5.83
2019-02-26T02:36:03.659Z,7.87
2019-02-26T02:38:36.504Z,9.30
2019-02-26T02:41:04.504Z,6.57
2019-02-26T02:43:34.072Z,8.23
2019-02-26T02:46:03.668Z,8.30
2019-02-26T02:48:33.241Z,5.80
2019-02-26T02:51:05.473Z,4.80
2019-02-26T02:53:34.945Z,6.90
2019-02-26T02:56:06.491Z,12.03
2019-02-26T02:58:35.848Z,5.63
2019-02-26T03:01:05.408Z,4.33
2019-02-26T03:03:35.021Z,5.17
2019-02-26T03:06:07.035Z,6.67
2019-02-26T03:08:35.898Z,9.10
2019-02-26T03:11:05.441Z,6.47
2019-02-26T03:13:35.064Z,5.67
2019-02-26T03:16:04.660Z,3.83
2019-02-26T03:18:34.280Z,7.67
2019-02-26T03:21:04.866Z,6.00
2019-02-26T03:23:38.017Z,8.80
2019-02-26T03:26:09.987Z,7.77
2019-02-26T03:28:39.978Z,5.83
2019-02-26T03:31:08.957Z,4.93
2019-02-26T03:33:38.482Z,4.63
2019-02-26T03:36:10.942Z,4.23
2019-02-26T03:38:40.869Z,5.53
2019-02-26T03:41:10.809Z,3.93
2019-02-26T03:43:41.786Z,6.63
2019-02-26T03:46:11.673Z,5.40
2019-02-26T03:48:41.235Z,7.47
2019-02-26T03:51:10.845Z,5.20
2019-02-26T03:53:41.858Z,4.83
2019-02-26T03:56:12.570Z,6.00
2019-02-26T03:58:42.949Z,6.97
2019-02-26T04:01:18.269Z,4.97
2019-02-26T04:03:45.415Z,4.57
2019-02-26T04:06:15.007Z,4.80
2019-02-26T04:08:46.032Z,4.67
2019-02-26T04:11:16.820Z,4.57
2019-02-26T04:13:49.497Z,6.77
2019-02-26T04:16:18.414Z,7.00
2019-02-26T04:18:51.079Z,5.73
2019-02-26T04:21:21.063Z,4.63
2019-02-26T04:23:51.856Z,6.60
2019-02-26T04:26:47.544Z,4.90
2019-02-26T04:29:49.848Z,5.27
2019-02-26T04:32:49.056Z,5.47
2019-02-26T04:35:59.213Z,5.03
2019-02-26T04:39:07.657Z,6.00
2019-02-26T04:41:57.836Z,7.23
2019-02-26T04:45:05.869Z,4.83
2019-02-26T04:47:35.187Z,8.30
2019-02-26T04:50:06.346Z,4.27
2019-02-26T04:52:40.040Z,5.37
2019-02-26T04:55:07.396Z,3.83
2019-02-26T04:57:39.459Z,4.90
2019-02-26T05:00:10.613Z,6.20
2019-02-26T05:02:41.234Z,5.10
2019-02-26T05:05:10.783Z,6.63
2019-02-26T05:07:45.062Z,3.93
2019-02-26T05:10:14.788Z,4.43
2019-02-26T05:12:44.365Z,5.17
2019-02-26T05:15:17.084Z,5.73
2019-02-26T05:17:45.246Z,10.73
2019-02-26T05:20:16.520Z,3.63
2019-02-26T05:22:46.136Z,7.37
2019-02-26T05:25:19.206Z,4.93
2019-02-26T05:27:48.669Z,4.90
2019-02-26T05:30:21.778Z,4.53
2019-02-26T05:32:51.966Z,6.73
2019-02-26T05:35:22.916Z,5.47
2019-02-26T05:37:52.111Z,6.70
2019-02-26T05:40:22.343Z,7.93
2019-02-26T05:42:53.343Z,4.47
2019-02-26T05:45:26.336Z,3.70
2019-02-26T05:47:58.659Z,5.33
2019-02-26T05:50:26.754Z,4.93
2019-02-26T05:53:01.019Z,4.77
2019-02-26T05:55:28.256Z,4.03
2019-02-26T05:57:58.893Z,4.53
2019-02-26T06:00:32.338Z,3.37
2019-02-26T06:02:59.791Z,5.47
2019-02-26T06:05:29.356Z,4.17
2019-02-26T06:07:58.958Z,4.93
2019-02-26T06:10:30.457Z,5.83
2019-02-26T06:13:02.041Z,3.83
2019-02-26T06:15:32.166Z,5.53
2019-02-26T06:18:02.435Z,5.73
2019-02-26T06:20:34.010Z,4.60
2019-02-26T06:23:03.290Z,5.37
2019-02-26T06:25:32.863Z,5.57
2019-02-26T06:28:06.937Z,5.63
2019-02-26T06:30:33.928Z,5.87
2019-02-26T06:33:04.436Z,6.13
2019-02-26T06:35:36.082Z,7.50
2019-02-26T06:38:09.323Z,5.77
2019-02-26T06:40:41.763Z,4.63
2019-02-26T06:43:10.789Z,7.77
2019-02-26T06:45:43.058Z,5.17
2019-02-26T06:48:14.625Z,5.30
2019-02-26T06:50:43.536Z,4.63
2019-02-26T06:53:16.142Z,3.37
2019-02-26T06:55:44.989Z,7.37
2019-02-26T06:58:21.513Z,4.83
2019-02-26T07:00:54.877Z,7.37
2019-02-26T07:03:24.770Z,4.43
2019-02-26T07:05:53.610Z,4.60
2019-02-26T07:08:25.678Z,3.60
2019-02-26T07:10:55.101Z,6.20
2019-02-26T07:13:24.629Z,2.87
2019-02-26T07:15:54.205Z,3.00
2019-02-26T07:18:23.793Z,4.07
2019-02-26T07:20:57.184Z,5.63
2019-02-26T07:23:24.841Z,5.07
2019-02-26T07:25:54.464Z,6.53
2019-02-26T07:28:25.055Z,3.77
2019-02-26T07:30:55.355Z,4.83
2019-02-26T07:33:27.183Z,4.17
2019-02-26T07:35:57.412Z,3.53
2019-02-26T07:38:28.463Z,5.47
2019-02-26T07:40:59.569Z,18.07
2019-02-26T07:43:29.345Z,20.53
2019-02-26T07:45:58.997Z,22.20
2019-02-26T07:48:29.445Z,20.53
2019-02-26T07:50:59.845Z,13.53
2019-02-26T07:53:29.541Z,19.67
2019-02-26T07:56:01.216Z,13.23
2019-02-26T07:58:31.405Z,15.03
2019-02-26T08:01:01.731Z,14.63
2019-02-26T08:03:31.352Z,10.07
2019-02-26T08:06:04.795Z,15.33
2019-02-26T08:08:34.175Z,9.53
2019-02-26T08:11:03.763Z,10.53
2019-02-26T08:13:33.996Z,10.67
2019-02-26T08:16:05.203Z,12.87
2019-02-26T08:18:35.320Z,11.20
2019-02-26T08:21:05.203Z,9.30
2019-02-26T08:23:35.368Z,12.97
2019-02-26T08:26:05.052Z,10.83
2019-02-26T08:28:36.481Z,9.43
2019-02-26T08:31:05.922Z,11.30
2019-02-26T08:33:35.571Z,9.23
2019-02-26T08:36:06.210Z,7.40
2019-02-26T08:38:35.816Z,9.67
2019-02-26T08:41:05.424Z,8.10
2019-02-26T08:43:34.999Z,11.10
2019-02-26T08:46:06.746Z,10.60
2019-02-26T08:48:35.981Z,7.20
2019-02-26T08:51:08.208Z,7.20
2019-02-26T08:53:37.025Z,6.63
2019-02-26T08:56:08.389Z,6.47
2019-02-26T08:58:40.634Z,5.97
2019-02-26T09:01:10.123Z,5.87
2019-02-26T09:03:40.866Z,6.50
2019-02-26T09:06:13.877Z,6.80
2019-02-26T09:08:43.125Z,7.13
2019-02-26T09:11:13.632Z,6.60
2019-02-26T09:13:44.260Z,9.97
2019-02-26T09:16:13.868Z,7.67
2019-02-26T09:18:43.483Z,6.80
2019-02-26T09:21:25.207Z,5.17
2019-02-26T09:23:56.896Z,7.33
2019-02-26T09:26:26.170Z,6.03
2019-02-26T09:28:57.162Z,9.10
2019-02-26T09:31:27.126Z,11.87
2019-02-26T09:33:56.696Z,7.97
2019-02-26T09:36:29.140Z,9.03
2019-02-26T09:38:57.564Z,6.83
2019-02-26T09:41:27.244Z,5.40
2019-02-26T09:43:56.847Z,6.43
2019-02-26T09:46:26.430Z,5.87
2019-02-26T09:48:57.906Z,8.43
2019-02-26T09:51:28.299Z,6.67
2019-02-26T09:53:59.007Z,3.67
2019-02-26T09:56:29.949Z,6.53
2019-02-26T09:59:02.440Z,4.87
2019-02-26T10:01:33.712Z,6.30
2019-02-26T10:04:05.368Z,5.17
2019-02-26T10:06:37.354Z,5.17
2019-02-26T10:09:08.953Z,5.10
2019-02-26T10:11:40.268Z,5.53
2019-02-26T10:14:12.699Z,4.90
2019-02-26T10:16:44.078Z,4.13
2019-02-26T10:19:14.957Z,5.93
2019-02-26T10:21:45.061Z,4.00
2019-02-26T10:24:14.631Z,3.33
2019-02-26T10:26:44.204Z,6.43
2019-02-26T10:29:13.841Z,7.13
2019-02-26T10:31:43.396Z,5.37
2019-02-26T10:34:15.761Z,5.10
2019-02-26T10:36:47.282Z,5.57
2019-02-26T10:39:18.067Z,3.37
2019-02-26T10:41:46.861Z,6.13
2019-02-26T10:44:16.502Z,3.53
2019-02-26T10:46:46.089Z,4.67
2019-02-26T10:49:15.673Z,3.87
2019-02-26T10:51:46.263Z,3.87
2019-02-26T10:54:17.923Z,4.97
2019-02-26T10:56:47.141Z,5.90
2019-02-26T10:59:19.526Z,5.37
2019-02-26T11:01:51.663Z,6.57
2019-02-26T11:04:19.317Z,3.63
2019-02-26T11:06:48.905Z,3.47
2019-02-26T11:09:22.243Z,3.63
2019-02-26T11:11:49.876Z,4.97
2019-02-26T11:14:19.603Z,3.73
2019-02-26T11:16:49.217Z,5.87
2019-02-26T11:19:18.787Z,4.43
2019-02-26T11:21:50.678Z,3.53
2019-02-26T11:24:19.701Z,5.93
2019-02-26T11:26:49.281Z,4.47
2019-02-26T11:29:18.909Z,4.87
2019-02-26T11:31:49.703Z,5.63
2019-02-26T11:34:19.929Z,5.57
2019-02-26T11:36:49.533Z,5.37
2019-02-26T11:39:19.116Z,4.83
2019-02-26T11:41:50.624Z,5.47
2019-02-26T11:44:22.575Z,7.00
2019-02-26T11:46:54.333Z,5.33
2019-02-26T11:49:24.254Z,5.27
2019-02-26T11:51:53.810Z,6.73
2019-02-26T11:54:23.387Z,5.77
2019-02-26T11:56:53.010Z,4.53
2019-02-26T11:59:22.587Z,5.83
2019-02-26T12:01:54.020Z,7.70
2019-02-26T12:04:36.143Z,5.23
2019-02-26T12:07:07.437Z,4.63
2019-02-26T12:09:38.541Z,6.63
2019-02-26T12:12:09.225Z,6.27
2019-02-26T12:14:41.184Z,5.77
2019-02-26T12:17:11.043Z,4.87
2019-02-26T12:19:40.662Z,5.37
2019-02-26T12:22:10.252Z,5.27
2019-02-26T12:24:39.853Z,7.23
2019-02-26T12:27:10.741Z,6.20
2019-02-26T12:29:43.616Z,8.30
2019-02-26T12:32:12.083Z,7.13
2019-02-26T12:34:44.582Z,7.20
2019-02-26T12:37:13.039Z,6.70
2019-02-26T12:39:43.632Z,6.03
2019-02-26T12:42:15.805Z,7.90
2019-02-26T12:44:45.633Z,5.33
2019-02-26T12:47:21.000Z,8.17
2019-02-26T12:49:47.615Z,6.47
2019-02-26T12:52:18.113Z,6.43
2019-02-26T12:54:48.518Z,6.83
2019-02-26T12:57:19.810Z,9.17
2019-02-26T12:59:49.407Z,6.07
2019-02-26T13:02:20.625Z,3.83
2019-02-26T13:04:51.601Z,6.23
2019-02-26T13:07:21.661Z,6.57
2019-02-26T13:09:54.964Z,6.33
2019-02-26T13:14:56.471Z,5.50
2019-02-26T13:17:28.570Z,4.17
2019-02-26T13:19:58.885Z,4.40
2019-02-26T13:22:27.766Z,4.40
2019-02-26T13:24:57.342Z,4.87
2019-02-26T13:27:26.989Z,5.20
2019-02-26T13:29:57.586Z,4.83
2019-02-26T13:32:32.169Z,4.27
2019-02-26T13:35:00.790Z,3.67
2019-02-26T13:37:34.742Z,4.20
2019-02-26T13:40:01.020Z,5.90
2019-02-26T13:42:31.690Z,3.73
2019-02-26T13:45:01.382Z,3.47
2019-02-26T13:47:31.046Z,4.23
2019-02-26T13:50:00.689Z,6.50
2019-02-26T13:52:30.241Z,4.13
2019-02-26T13:54:59.846Z,5.67
2019-02-26T13:57:29.448Z,4.03
2019-02-26T13:59:59.115Z,3.13
2019-02-26T14:02:28.697Z,3.93
2019-02-26T14:04:58.276Z,4.77
2019-02-26T14:07:27.837Z,6.43
2019-02-26T14:09:57.412Z,5.10
2019-02-26T14:12:27.013Z,6.13
2019-02-26T14:14:56.642Z,5.17
2019-02-26T14:17:26.205Z,6.00
2019-02-26T14:19:55.841Z,16.43
2019-02-26T14:22:27.089Z,4.93
2019-02-26T14:24:57.652Z,6.30
2019-02-26T14:27:27.445Z,22.90
2019-02-26T14:29:57.285Z,22.97
2019-02-26T14:32:27.351Z,26.57
2019-02-26T14:34:57.461Z,33.80
2019-02-26T14:37:27.886Z,34.17
2019-02-26T14:39:58.142Z,39.07
2019-02-26T14:42:28.331Z,28.90
2019-02-26T14:45:01.951Z,37.60
2019-02-26T14:47:32.880Z,32.60
2019-02-26T14:50:03.409Z,30.07
2019-02-26T14:52:35.920Z,23.23
2019-02-26T14:55:06.243Z,20.47
2019-02-26T14:57:39.178Z,22.90
2019-02-26T15:00:17.999Z,24.53
2019-02-26T15:03:04.664Z,25.30
2019-02-26T15:05:35.541Z,25.93
2019-02-26T15:08:06.347Z,26.07
2019-02-26T15:10:37.853Z,24.00
2019-02-26T15:13:12.658Z,20.13
2019-02-26T15:15:43.092Z,20.43
2019-02-26T15:18:13.499Z,21.17
2019-02-26T15:20:43.620Z,23.87
2019-02-26T15:23:22.117Z,18.37
2019-02-26T15:25:54.034Z,19.80
2019-02-26T15:28:24.659Z,21.27
2019-02-26T15:30:56.394Z,25.27
2019-02-26T15:33:29.262Z,19.80
2019-02-26T15:36:14.170Z,17.10
2019-02-26T15:38:43.754Z,18.90
2019-02-26T15:41:13.373Z,27.60
2019-02-26T15:43:43.000Z,21.40
2019-02-26T15:46:13.354Z,18.17
2019-02-26T15:48:42.897Z,23.70
2019-02-26T15:51:14.640Z,20.33
2019-02-26T15:53:44.484Z,17.67
2019-02-26T15:56:14.072Z,16.73
2019-02-26T15:58:43.640Z,19.23
2019-02-26T16:01:15.187Z,18.07
2019-02-26T16:03:45.776Z,14.73
2019-02-26T16:06:15.473Z,20.17
2019-02-26T16:08:45.053Z,17.60
2019-02-26T16:11:14.696Z,15.90
2019-02-26T16:13:45.148Z,16.23
2019-02-26T16:16:14.818Z,20.77
2019-02-26T16:18:44.788Z,19.37
2019-02-26T16:21:14.363Z,13.67
2019-02-26T16:23:43.960Z,13.57
2019-02-26T16:26:13.583Z,16.47
2019-02-26T16:28:43.166Z,12.67
2019-02-26T16:31:12.750Z,10.53
2019-02-26T16:33:46.330Z,14.63
2019-02-26T16:36:14.651Z,19.30
2019-02-26T16:38:44.284Z,14.97
2019-02-26T16:41:13.948Z,19.93
2019-02-26T16:43:43.494Z,15.93
2019-02-26T16:46:13.111Z,14.13
2019-02-26T16:48:43.826Z,7.60
2019-02-26T16:51:13.450Z,13.93
2019-02-26T16:53:43.042Z,13.37
2019-02-26T16:56:12.681Z,14.20
2019-02-26T16:58:42.241Z,11.50
2019-02-26T17:01:14.248Z,14.60
2019-02-26T17:03:43.815Z,14.50
2019-02-26T17:06:15.016Z,13.63
2019-02-26T17:08:47.139Z,10.43
2019-02-26T17:11:15.922Z,11.87
2019-02-26T17:13:45.458Z,14.17
2019-02-26T17:16:15.920Z,13.07
2019-02-26T17:18:45.671Z,10.10
2019-02-26T17:21:15.237Z,8.33
2019-02-26T17:23:48.142Z,10.67
2019-02-26T17:26:17.774Z,9.90
2019-02-26T17:28:47.399Z,12.97
2019-02-26T17:31:44.866Z,9.73
2019-02-26T17:34:33.829Z,9.70
2019-02-26T17:37:03.749Z,9.97
2019-02-26T17:39:33.365Z,14.47
2019-02-26T17:42:22.871Z,12.93
2019-02-26T17:44:54.670Z,11.47
2019-02-26T17:47:24.954Z,11.20
2019-02-26T17:49:54.588Z,9.53
2019-02-26T17:52:25.846Z,11.47
2019-02-26T17:54:58.486Z,11.53
2019-02-26T17:57:28.564Z,19.00
2019-02-26T17:59:58.536Z,7.63
2019-02-26T18:02:28.384Z,8.47
2019-02-26T18:04:58.504Z,9.83
2019-02-26T18:07:31.878Z,14.77
2019-02-26T18:10:01.495Z,9.63
2019-02-26T18:12:32.679Z,29.10
2019-02-26T18:15:02.330Z,13.63
2019-02-26T18:17:33.563Z,14.57
2019-02-26T18:20:03.135Z,16.60
2019-02-26T18:22:33.185Z,9.87
2019-02-26T18:25:03.872Z,9.30
2019-02-26T18:27:33.474Z,12.33
2019-02-26T18:30:03.150Z,14.13
2019-02-26T18:32:32.832Z,12.93
2019-02-26T18:35:03.466Z,11.57
2019-02-26T18:37:34.679Z,13.13
2019-02-26T18:40:05.195Z,12.63
2019-02-26T18:42:34.847Z,12.23
2019-02-26T18:45:09.287Z,9.27
2019-02-26T18:47:42.280Z,11.87
2019-02-26T18:50:10.366Z,11.13
2019-02-26T18:52:41.539Z,10.93
2019-02-26T18:55:13.123Z,9.43
2019-02-26T18:57:43.679Z,12.27
2019-02-26T19:00:19.793Z,13.07
2019-02-26T19:02:51.111Z,20.07
2019-02-26T19:05:21.513Z,9.10
2019-02-26T19:07:51.275Z,15.10
2019-02-26T19:10:21.155Z,9.43
2019-02-26T19:12:51.272Z,11.20
2019-02-26T19:15:21.069Z,11.43
2019-02-26T19:17:52.147Z,10.57
2019-02-26T19:20:24.445Z,13.27
2019-02-26T19:22:54.105Z,11.90
2019-02-26T19:25:23.730Z,9.03
2019-02-26T19:27:53.688Z,9.13
2019-02-26T19:30:23.815Z,13.63
2019-02-26T19:32:53.444Z,10.33
2019-02-26T19:35:23.067Z,7.90
2019-02-26T19:37:55.809Z,16.60
2019-02-26T19:40:30.296Z,9.07
2019-02-26T19:43:00.079Z,11.77
2019-02-26T19:45:29.720Z,11.60
2019-02-26T19:47:59.370Z,10.53
2019-02-26T19:50:28.968Z,11.13
2019-02-26T19:53:02.197Z,11.73
2019-02-26T19:55:32.417Z,12.30
2019-02-26T19:58:03.999Z,14.97
2019-02-26T20:00:33.322Z,9.30
2019-02-26T20:03:05.537Z,10.33
2019-02-26T20:05:36.019Z,12.17
2019-02-26T20:08:06.103Z,11.00
2019-02-26T20:10:36.253Z,10.50
2019-02-26T20:13:12.276Z,12.67
2019-02-26T20:15:37.460Z,9.03
2019-02-26T20:18:07.220Z,9.77
2019-02-26T20:20:40.863Z,8.40
2019-02-26T20:23:08.207Z,11.20
2019-02-26T20:25:37.870Z,10.10
2019-02-26T20:28:07.653Z,16.67
2019-02-26T20:30:38.561Z,10.47
2019-02-26T20:33:09.208Z,13.63
2019-02-26T20:35:38.886Z,8.77
2019-02-26T20:38:08.623Z,9.27
2019-02-26T20:40:38.329Z,9.70
2019-02-26T20:43:07.963Z,9.47
2019-02-26T20:45:38.498Z,7.30
2019-02-26T20:48:08.279Z,12.93
2019-02-26T20:50:37.924Z,10.17
2019-02-26T20:53:07.557Z,10.10
2019-02-26T20:55:37.210Z,10.40
2019-02-26T20:58:07.047Z,6.07
2019-02-26T21:00:42.184Z,8.30
2019-02-26T21:03:08.136Z,7.30
2019-02-26T21:05:37.770Z,7.83
2019-02-26T21:08:07.398Z,10.27
2019-02-26T21:10:38.605Z,12.00
2019-02-26T21:13:08.213Z,12.27
2019-02-26T21:15:37.832Z,5.93
2019-02-26T21:18:07.442Z,10.03
2019-02-26T21:20:38.766Z,11.00
2019-02-26T21:23:08.340Z,9.87
2019-02-26T21:25:37.932Z,8.43
2019-02-26T21:28:07.570Z,9.53
2019-02-26T21:30:37.188Z,9.73
2019-02-26T21:33:06.782Z,10.17
2019-02-26T21:35:36.366Z,7.63
2019-02-26T21:38:06.520Z,7.73
2019-02-26T21:40:37.342Z,5.97
2019-02-26T21:43:07.570Z,5.80
2019-02-26T21:45:37.266Z,7.43
2019-02-26T21:48:06.962Z,9.37
2019-02-26T21:50:36.577Z,9.90
2019-02-26T21:53:06.187Z,6.20
2019-02-26T21:55:43.954Z,8.47
2019-02-26T21:58:07.050Z,5.37
2019-02-26T22:00:36.779Z,11.03
2019-02-26T22:03:07.983Z,6.87
2019-02-26T22:05:37.820Z,6.90
2019-02-26T22:08:08.574Z,5.07
2019-02-26T22:10:40.183Z,5.67
2019-02-26T22:13:09.570Z,9.97
2019-02-26T22:15:39.167Z,4.33
2019-02-26T22:18:08.870Z,5.27
2019-02-26T22:20:38.576Z,6.47
2019-02-26T22:23:08.194Z,6.60
2019-02-26T22:25:37.801Z,4.87
2019-02-26T22:28:08.721Z,5.10
2019-02-26T22:30:38.722Z,9.33
2019-02-26T22:33:08.571Z,5.40
2019-02-26T22:35:38.738Z,5.97
2019-02-26T22:38:08.359Z,6.30
2019-02-26T22:40:37.955Z,6.13
2019-02-26T22:43:07.557Z,6.07
2019-02-26T22:45:37.169Z,7.53
2019-02-26T22:48:08.627Z,6.30
2019-02-26T22:50:38.261Z,5.20
2019-02-26T22:53:07.954Z,5.33
2019-02-26T22:55:37.545Z,6.60
2019-02-26T22:58:07.128Z,5.77
2019-02-26T23:00:59.550Z,6.10
2019-02-26T23:03:30.788Z,4.97
2019-02-26T23:06:00.466Z,6.80
2019-02-26T23:08:31.765Z,4.93
2019-02-26T23:11:01.415Z,5.40
2019-02-26T23:13:32.632Z,6.53
2019-02-26T23:16:03.916Z,4.87
2019-02-26T23:18:34.382Z,5.47
2019-02-26T23:21:05.849Z,6.60
2019-02-26T23:23:35.558Z,8.17
2019-02-26T23:26:08.621Z,5.80
2019-02-26T23:28:36.457Z,7.20
2019-02-26T23:31:07.487Z,4.63
2019-02-26T23:33:38.124Z,6.80
2019-02-26T23:36:07.833Z,6.40
2019-02-26T23:38:37.440Z,5.80
2019-02-26T23:41:07.032Z,8.40
2019-02-26T23:43:36.626Z,5.73
2019-02-26T23:46:06.239Z,4.97
2019-02-26T23:48:35.836Z,6.27
2019-02-26T23:51:05.515Z,4.83
2019-02-26T23:53:35.167Z,6.67
2019-02-26T23:56:04.707Z,5.80
2019-02-26T23:58:35.659Z,6.97
